Terminal Aerodrome Forecast
Issued by NWS

Home | Current Version | Previous Version | Text Only | Print | Product List | Glossary On
Versions: 1 2 3 4 5 6 7 8 9 10 11 12 13 14 15
000
FTUS42 KMLB 161500 AAA
TAFSFB
TAF AMD
KSFB 161520Z 1615/1712 02010KT P6SM SKC
     FM161800 04013G21KT P6SM FEW030 OVC060
     FM170000 04010KT P6SM BKN025
     FM170600 03008KT P6SM BKN015=

USA.gov is the U.S. government's official web portal to all federal, state and local government web resources and services.